createdAt,value
2022-08-02T00:00:17.388Z,5.20
2022-08-02T00:02:46.863Z,5.20
2022-08-02T00:05:17.839Z,5.20
2022-08-02T00:07:46.109Z,5.00
2022-08-02T00:10:14.221Z,5.00
2022-08-02T00:12:42.374Z,5.10
2022-08-02T00:15:15.997Z,5.10
2022-08-02T00:17:46.434Z,5.00
2022-08-02T00:20:18.056Z,5.00
2022-08-02T00:22:46.789Z,4.90
2022-08-02T00:25:14.848Z,4.80
2022-08-02T00:27:43.120Z,4.80
2022-08-02T00:30:12.179Z,4.80
2022-08-02T00:32:40.269Z,4.70
2022-08-02T00:35:09.536Z,4.60
2022-08-02T00:37:41.692Z,4.60
2022-08-02T00:40:11.329Z,4.60
2022-08-02T00:42:40.446Z,4.60
2022-08-02T00:45:09.604Z,4.60
2022-08-02T00:47:37.770Z,4.60
2022-08-02T00:50:06.914Z,4.60
2022-08-02T00:52:34.974Z,4.60
2022-08-02T00:55:04.609Z,4.60
2022-08-02T00:57:32.766Z,4.60
2022-08-02T01:00:00.862Z,4.60
2022-08-02T01:02:29.009Z,4.60
2022-08-02T01:04:57.114Z,4.50
2022-08-02T01:07:25.302Z,4.50
2022-08-02T01:09:53.832Z,4.50
2022-08-02T01:12:23.233Z,4.50
2022-08-02T01:14:52.611Z,4.40
2022-08-02T01:17:30.183Z,4.40
2022-08-02T01:20:07.425Z,4.30
2022-08-02T01:23:02.019Z,4.20
2022-08-02T01:26:04.249Z,4.20
2022-08-02T01:28:39.956Z,4.20
2022-08-02T01:31:15.138Z,4.10
2022-08-02T01:33:48.611Z,4.10
2022-08-02T01:36:19.842Z,4.00
2022-08-02T01:38:51.148Z,4.00
2022-08-02T01:41:22.475Z,4.00
2022-08-02T01:43:56.656Z,4.00
2022-08-02T01:46:26.427Z,3.90
2022-08-02T01:48:57.345Z,3.90
2022-08-02T01:51:41.127Z,3.90
2022-08-02T01:54:12.962Z,3.70
2022-08-02T01:56:43.892Z,3.70
2022-08-02T01:59:17.335Z,3.70
2022-08-02T02:01:47.056Z,3.70
2022-08-02T02:04:16.530Z,3.80
2022-08-02T02:06:45.795Z,3.80
2022-08-02T02:09:15.413Z,3.70
2022-08-02T02:12:06.175Z,3.60
2022-08-02T02:14:35.896Z,3.60
2022-08-02T02:17:05.112Z,3.60
2022-08-02T02:19:35.323Z,3.50
2022-08-02T02:22:03.805Z,3.40
2022-08-02T02:24:32.297Z,3.30
2022-08-02T02:27:02.873Z,3.20
2022-08-02T02:29:33.188Z,3.10
2022-08-02T02:32:05.845Z,3.00
2022-08-02T02:34:37.793Z,3.10
2022-08-02T02:37:10.039Z,3.10
2022-08-02T02:39:40.322Z,3.20
2022-08-02T02:42:12.241Z,3.20
2022-08-02T02:44:41.522Z,3.20
2022-08-02T02:47:13.994Z,3.20
2022-08-02T02:49:44.058Z,3.20
2022-08-02T02:52:14.464Z,3.20
2022-08-02T02:54:44.030Z,3.20
2022-08-02T02:57:12.805Z,3.30
2022-08-02T02:59:49.111Z,3.30
2022-08-02T03:02:19.860Z,3.40
2022-08-02T03:04:55.563Z,3.40
2022-08-02T03:07:26.246Z,3.40
2022-08-02T03:09:55.225Z,3.50
2022-08-02T03:12:30.981Z,3.50
2022-08-02T03:15:01.002Z,3.60
2022-08-02T03:17:40.920Z,3.70
2022-08-02T03:20:12.572Z,3.70
2022-08-02T03:22:41.099Z,3.80
2022-08-02T03:25:10.636Z,3.90
2022-08-02T03:27:39.683Z,4.00
2022-08-02T03:30:10.280Z,4.00
2022-08-02T03:32:42.161Z,4.00
2022-08-02T03:35:18.563Z,4.20
2022-08-02T03:37:53.156Z,4.40
2022-08-02T03:40:22.053Z,4.50
2022-08-02T03:42:51.163Z,4.60
2022-08-02T03:45:20.121Z,4.70
2022-08-02T03:47:50.020Z,5.00
2022-08-02T03:50:19.343Z,5.60
2022-08-02T03:52:47.551Z,6.20
2022-08-02T03:55:16.204Z,6.40
2022-08-02T03:57:44.955Z,6.40
2022-08-02T04:00:19.064Z,6.90
2022-08-02T04:02:47.247Z,7.10
2022-08-02T04:05:17.210Z,7.30
2022-08-02T04:08:15.372Z,7.50
2022-08-02T04:10:54.713Z,7.70
2022-08-02T04:13:27.463Z,8.00
2022-08-02T04:16:03.480Z,8.30
2022-08-02T04:18:37.291Z,9.00
2022-08-02T04:21:08.981Z,9.20
2022-08-02T04:23:39.199Z,9.40
2022-08-02T04:26:10.778Z,10.20
2022-08-02T04:28:40.011Z,11.10
2022-08-02T04:31:08.819Z,11.50
2022-08-02T04:33:37.686Z,11.90
2022-08-02T04:36:09.030Z,12.00
2022-08-02T04:38:37.339Z,12.10
2022-08-02T04:41:05.394Z,12.10
2022-08-02T04:43:33.506Z,12.60
2022-08-02T04:46:02.797Z,13.20
2022-08-02T04:48:30.945Z,13.50
2022-08-02T04:50:59.215Z,13.60
2022-08-02T04:53:28.676Z,13.30
2022-08-02T04:55:56.764Z,13.20
2022-08-02T04:58:39.974Z,13.30
2022-08-02T05:01:08.879Z,13.60
2022-08-02T05:03:37.103Z,13.90
2022-08-02T05:06:07.604Z,14.40
2022-08-02T05:08:52.738Z,14.90
2022-08-02T05:11:22.147Z,16.10
2022-08-02T05:13:57.516Z,17.00
2022-08-02T05:16:30.983Z,16.40
2022-08-02T05:19:00.494Z,15.50
2022-08-02T05:21:29.292Z,15.00
2022-08-02T05:23:58.764Z,14.80
2022-08-02T05:26:26.866Z,15.00
2022-08-02T05:28:54.969Z,15.50
2022-08-02T05:31:23.178Z,16.20
2022-08-02T05:33:51.416Z,16.30
2022-08-02T05:36:21.407Z,16.50
2022-08-02T05:38:51.015Z,17.50
2022-08-02T05:41:20.983Z,18.40
2022-08-02T05:43:49.261Z,18.40
2022-08-02T05:46:17.389Z,18.80
2022-08-02T05:48:45.749Z,18.50
2022-08-02T05:51:19.470Z,18.30
2022-08-02T05:53:52.913Z,18.10
2022-08-02T05:56:26.270Z,18.40
2022-08-02T05:59:00.382Z,19.00
2022-08-02T06:01:33.879Z,19.60
2022-08-02T06:04:03.065Z,19.80
2022-08-02T06:06:33.314Z,19.60
2022-08-02T06:09:10.030Z,19.60
2022-08-02T06:12:02.638Z,19.80
2022-08-02T06:14:33.790Z,20.10
2022-08-02T06:17:04.939Z,20.10
2022-08-02T06:19:47.026Z,20.30
2022-08-02T06:22:33.796Z,19.90
2022-08-02T06:25:06.697Z,19.80
2022-08-02T06:27:56.880Z,20.00
2022-08-02T06:30:25.148Z,20.40
2022-08-02T06:32:53.933Z,20.80
2022-08-02T06:35:22.427Z,21.20
2022-08-02T06:37:58.908Z,21.70
2022-08-02T06:40:30.787Z,22.10
2022-08-02T06:43:09.436Z,22.00
2022-08-02T06:45:38.130Z,21.90
2022-08-02T06:48:07.357Z,21.90
2022-08-02T06:50:38.213Z,21.40
2022-08-02T06:53:06.436Z,20.60
2022-08-02T06:55:42.763Z,20.20
2022-08-02T06:58:13.865Z,20.00
2022-08-02T07:00:43.368Z,19.90
2022-08-02T07:03:11.522Z,19.70
2022-08-02T07:05:39.985Z,19.20
2022-08-02T07:08:08.606Z,18.60
2022-08-02T07:10:36.698Z,18.40
2022-08-02T07:13:04.833Z,18.40
2022-08-02T07:15:34.637Z,18.30
2022-08-02T07:18:02.787Z,18.40
2022-08-02T07:20:30.909Z,18.40
2022-08-02T07:22:59.152Z,18.50
2022-08-02T07:26:01.890Z,18.50
2022-08-02T07:28:23.719Z,18.20
2022-08-02T07:30:53.936Z,18.00
2022-08-02T07:33:37.357Z,18.00
2022-08-02T07:36:09.657Z,18.10
2022-08-02T07:38:42.853Z,18.30
2022-08-02T07:41:13.732Z,18.50
2022-08-02T07:43:42.070Z,18.50
2022-08-02T07:46:11.773Z,18.60
2022-08-02T07:48:39.886Z,18.60
2022-08-02T07:51:08.090Z,18.90
2022-08-02T07:53:51.043Z,19.10
2022-08-02T07:56:20.210Z,19.30
2022-08-02T07:58:48.228Z,19.30
2022-08-02T08:01:18.490Z,19.30
2022-08-02T08:03:46.861Z,19.20
2022-08-02T08:06:15.019Z,19.00
2022-08-02T08:08:44.600Z,18.80
2022-08-02T08:11:12.674Z,18.60
2022-08-02T08:13:40.841Z,18.60
2022-08-02T08:16:08.905Z,18.70
2022-08-02T08:18:38.348Z,18.80
2022-08-02T08:21:06.433Z,18.90
2022-08-02T08:23:35.408Z,18.90
2022-08-02T08:26:03.768Z,19.00
2022-08-02T08:28:32.057Z,18.90
2022-08-02T08:31:00.262Z,18.90
2022-08-02T08:33:28.450Z,18.80
2022-08-02T08:35:58.141Z,18.90
2022-08-02T08:38:26.363Z,18.90
2022-08-02T08:40:57.034Z,18.90
2022-08-02T08:43:25.315Z,18.50
2022-08-02T08:45:56.097Z,18.10
2022-08-02T08:48:31.070Z,18.10
2022-08-02T08:51:11.561Z,18.20
2022-08-02T08:53:43.312Z,18.30
2022-08-02T08:56:16.190Z,18.20
2022-08-02T08:58:45.414Z,18.10
2022-08-02T09:01:15.296Z,18.10
2022-08-02T09:03:43.821Z,18.30
2022-08-02T09:06:13.290Z,18.30
2022-08-02T09:08:41.401Z,18.60
2022-08-02T09:11:16.780Z,18.80
2022-08-02T09:13:52.832Z,18.90
2022-08-02T09:16:33.441Z,19.30
2022-08-02T09:19:02.069Z,19.50
2022-08-02T09:21:38.979Z,19.80
2022-08-02T09:24:18.640Z,20.00
2022-08-02T09:26:47.706Z,20.00
2022-08-02T09:29:16.703Z,20.20
2022-08-02T09:31:49.991Z,20.30
2022-08-02T09:34:19.713Z,20.50
2022-08-02T09:36:54.303Z,20.50
2022-08-02T09:39:23.870Z,20.70
2022-08-02T09:41:51.988Z,20.90
2022-08-02T09:44:20.588Z,21.00
2022-08-02T09:46:48.708Z,21.00
2022-08-02T09:49:18.893Z,20.80
2022-08-02T09:51:54.053Z,20.90
2022-08-02T09:54:25.371Z,21.00
2022-08-02T09:56:55.349Z,21.10
2022-08-02T09:59:25.515Z,21.20
2022-08-02T10:02:01.305Z,20.90
2022-08-02T10:04:34.535Z,20.80
2022-08-02T10:07:22.822Z,20.80
2022-08-02T10:09:51.681Z,21.00
2022-08-02T10:12:20.731Z,21.30
2022-08-02T10:14:51.509Z,21.40
2022-08-02T10:17:20.268Z,21.40
2022-08-02T10:20:01.799Z,21.50
2022-08-02T10:22:34.984Z,21.70
2022-08-02T10:25:04.661Z,21.10
2022-08-02T10:27:49.309Z,21.10
2022-08-02T10:30:24.516Z,21.40
2022-08-02T10:32:54.965Z,21.30
2022-08-02T10:35:26.728Z,21.20
2022-08-02T10:38:01.220Z,21.00
2022-08-02T10:40:44.936Z,20.90
2022-08-02T10:43:14.249Z,20.90
2022-08-02T10:45:42.309Z,20.90
2022-08-02T10:48:14.663Z,20.90
2022-08-02T10:50:55.544Z,21.00
2022-08-02T10:53:28.091Z,20.60
2022-08-02T10:55:57.512Z,20.40
2022-08-02T10:58:29.691Z,20.90
2022-08-02T11:00:59.453Z,21.20
2022-08-02T11:03:40.750Z,21.10
2022-08-02T11:06:24.946Z,21.10
2022-08-02T11:09:33.427Z,21.20
2022-08-02T11:12:04.411Z,21.30
2022-08-02T11:14:33.766Z,21.30
2022-08-02T11:17:14.195Z,21.50
2022-08-02T11:20:17.956Z,21.70
2022-08-02T11:22:48.352Z,21.80
2022-08-02T11:26:02.611Z,21.80
2022-08-02T11:28:26.213Z,21.70
2022-08-02T11:30:58.897Z,21.50
2022-08-02T11:33:33.329Z,21.70
2022-08-02T11:36:07.176Z,21.80
2022-08-02T11:38:35.836Z,21.70
2022-08-02T11:41:06.303Z,21.70
2022-08-02T11:43:39.681Z,21.80
2022-08-02T11:46:15.280Z,22.20
2022-08-02T11:48:45.168Z,21.90
2022-08-02T11:51:15.196Z,21.90
2022-08-02T11:53:48.553Z,22.20
2022-08-02T11:56:24.104Z,22.30
2022-08-02T11:59:07.824Z,22.50
2022-08-02T12:01:45.865Z,22.70
2022-08-02T12:04:19.477Z,22.50
2022-08-02T12:06:59.027Z,22.60
2022-08-02T12:09:28.561Z,22.90
2022-08-02T12:11:58.558Z,23.00
2022-08-02T12:14:28.282Z,23.10
2022-08-02T12:17:14.077Z,23.00
2022-08-02T12:19:43.351Z,22.80
2022-08-02T12:22:14.994Z,22.60
2022-08-02T12:24:46.229Z,22.20
2022-08-02T12:30:10.358Z,22.30
2022-08-02T12:32:39.375Z,22.40
2022-08-02T12:35:12.909Z,22.60
2022-08-02T12:37:43.433Z,22.70
2022-08-02T12:40:26.605Z,22.30
2022-08-02T12:42:57.436Z,22.00
2022-08-02T12:45:39.972Z,21.80
2022-08-02T12:48:10.587Z,22.30
2022-08-02T12:50:39.476Z,22.50
2022-08-02T12:53:10.407Z,22.60
2022-08-02T12:55:59.737Z,22.60
2022-08-02T12:58:28.452Z,22.40
2022-08-02T13:01:00.049Z,22.80
2022-08-02T13:04:09.452Z,22.90
2022-08-02T13:06:42.171Z,22.60
2022-08-02T13:09:13.885Z,22.50
2022-08-02T13:11:43.416Z,22.80
2022-08-02T13:14:12.274Z,22.90
2022-08-02T13:16:43.102Z,22.90
2022-08-02T13:19:11.291Z,22.90
2022-08-02T13:21:41.639Z,23.00
2022-08-02T13:24:40.098Z,23.00
2022-08-02T13:27:15.677Z,23.00
2022-08-02T13:29:43.805Z,22.90
2022-08-02T13:32:13.471Z,22.60
2022-08-02T13:34:41.829Z,22.50
2022-08-02T13:37:10.428Z,22.90
2022-08-02T13:39:38.639Z,23.00
2022-08-02T13:42:07.185Z,23.10
2022-08-02T13:44:35.799Z,23.20
2022-08-02T13:47:04.028Z,23.10
2022-08-02T13:49:50.770Z,23.10
2022-08-02T13:52:19.803Z,23.20
2022-08-02T13:54:47.872Z,23.10
2022-08-02T13:57:16.054Z,22.80
2022-08-02T13:59:58.487Z,22.70
2022-08-02T14:02:28.311Z,22.70
2022-08-02T14:04:58.144Z,23.00
2022-08-02T14:07:26.238Z,23.00
2022-08-02T14:09:54.428Z,23.30
2022-08-02T14:12:22.546Z,23.40
2022-08-02T14:14:50.846Z,23.50
2022-08-02T14:17:19.743Z,23.70
2022-08-02T14:19:47.917Z,23.60
2022-08-02T14:22:17.482Z,23.30
2022-08-02T14:24:45.864Z,23.10
2022-08-02T14:27:14.119Z,23.10
2022-08-02T14:29:42.190Z,23.10
2022-08-02T14:32:10.845Z,22.80
2022-08-02T14:34:39.216Z,22.50
2022-08-02T14:37:07.395Z,22.40
2022-08-02T14:39:43.104Z,22.70
2022-08-02T14:42:25.197Z,22.90
2022-08-02T14:44:53.481Z,23.30
2022-08-02T14:47:21.586Z,23.40
2022-08-02T14:49:50.519Z,23.50
2022-08-02T14:52:20.005Z,23.60
2022-08-02T14:54:49.970Z,23.50
2022-08-02T14:57:18.127Z,23.40
2022-08-02T14:59:47.264Z,23.10
2022-08-02T15:02:15.994Z,22.90
2022-08-02T15:04:44.275Z,22.60
2022-08-02T15:07:14.187Z,22.60
2022-08-02T15:09:42.568Z,22.30
2022-08-02T15:12:13.277Z,21.90
2022-08-02T15:14:42.366Z,21.50
2022-08-02T15:17:11.170Z,21.20
2022-08-02T15:19:57.776Z,21.30
2022-08-02T15:22:28.810Z,21.60
2022-08-02T15:24:57.747Z,21.80
2022-08-02T15:27:27.268Z,22.00
2022-08-02T15:30:00.298Z,21.80
2022-08-02T15:32:28.878Z,22.00
2022-08-02T15:34:56.958Z,21.90
2022-08-02T15:37:25.439Z,21.80
2022-08-02T15:39:59.158Z,21.80
2022-08-02T15:42:30.673Z,21.80
2022-08-02T15:45:00.529Z,21.80
2022-08-02T15:47:28.691Z,21.80
2022-08-02T15:49:56.805Z,21.70
2022-08-02T15:52:26.800Z,21.60
2022-08-02T15:54:54.965Z,21.50
2022-08-02T15:57:23.124Z,21.40
2022-08-02T15:59:53.197Z,21.40
2022-08-02T16:02:21.847Z,21.10
2022-08-02T16:04:50.062Z,21.10
2022-08-02T16:07:18.333Z,21.10
2022-08-02T16:09:46.581Z,21.00
2022-08-02T16:12:15.146Z,21.00
2022-08-02T16:14:43.508Z,21.00
2022-08-02T16:17:12.996Z,21.00
2022-08-02T16:19:48.309Z,21.10
2022-08-02T16:22:18.114Z,21.10
2022-08-02T16:24:46.416Z,21.00
2022-08-02T16:27:14.622Z,21.00
2022-08-02T16:29:42.680Z,21.10
2022-08-02T16:32:12.659Z,20.80
2022-08-02T16:35:07.114Z,20.70
2022-08-02T16:37:52.057Z,20.60
2022-08-02T16:40:17.521Z,20.40
2022-08-02T16:42:48.795Z,20.20
2022-08-02T16:48:09.607Z,19.70
2022-08-02T16:50:38.255Z,19.50
2022-08-02T16:53:07.475Z,19.50
2022-08-02T16:55:36.306Z,19.20
2022-08-02T16:58:04.551Z,19.00
2022-08-02T17:00:38.052Z,19.00
2022-08-02T17:03:16.180Z,19.00
2022-08-02T17:05:55.995Z,18.70
2022-08-02T17:08:31.718Z,18.60
2022-08-02T17:11:03.838Z,18.50
2022-08-02T17:13:34.347Z,18.40
2022-08-02T17:16:25.915Z,18.30
2022-08-02T17:18:57.514Z,18.10
2022-08-02T17:21:25.667Z,17.90
2022-08-02T17:24:07.679Z,17.90
2022-08-02T17:26:37.195Z,17.80
2022-08-02T17:29:15.523Z,17.60
2022-08-02T17:32:12.634Z,17.40
2022-08-02T17:34:37.952Z,17.40
2022-08-02T17:37:06.786Z,17.40
2022-08-02T17:39:44.237Z,17.30
2022-08-02T17:42:23.260Z,17.20
2022-08-02T17:44:53.275Z,17.00
2022-08-02T17:47:21.827Z,17.00
2022-08-02T17:52:50.272Z,16.90
2022-08-02T17:55:21.301Z,16.90
2022-08-02T17:57:57.133Z,16.80
2022-08-02T18:00:33.837Z,16.80
2022-08-02T18:03:06.235Z,16.80
2022-08-02T18:05:39.675Z,16.70
2022-08-02T18:08:22.784Z,16.60
2022-08-02T18:10:52.520Z,16.50
2022-08-02T18:13:20.746Z,16.50
2022-08-02T18:15:48.996Z,16.40
2022-08-02T18:18:19.174Z,16.40
2022-08-02T18:21:15.600Z,16.50
2022-08-02T18:23:58.853Z,16.50
2022-08-02T18:26:29.335Z,16.50
2022-08-02T18:28:58.224Z,16.50
2022-08-02T18:31:27.089Z,16.50
2022-08-02T18:34:01.879Z,16.40
2022-08-02T18:36:33.084Z,16.40
2022-08-02T18:39:07.888Z,16.30
2022-08-02T18:41:37.937Z,16.30
2022-08-02T18:44:06.646Z,16.30
2022-08-02T18:46:34.873Z,16.20
2022-08-02T18:49:13.449Z,16.20
2022-08-02T18:51:45.008Z,16.20
2022-08-02T18:54:13.354Z,16.10
2022-08-02T18:59:29.541Z,16.00
2022-08-02T19:02:05.777Z,16.00
2022-08-02T19:04:34.223Z,16.00
2022-08-02T19:07:07.625Z,16.00
2022-08-02T19:09:40.058Z,16.00
2022-08-02T19:12:11.390Z,16.00
2022-08-02T19:14:40.116Z,16.00
2022-08-02T19:17:15.886Z,16.00
2022-08-02T19:19:56.632Z,16.00
2022-08-02T19:22:27.206Z,16.00
2022-08-02T19:25:00.016Z,16.00
2022-08-02T19:27:32.670Z,16.10
2022-08-02T19:30:02.529Z,16.10
2022-08-02T19:32:41.975Z,16.10
2022-08-02T19:35:30.769Z,16.10
2022-08-02T19:38:09.303Z,16.10
2022-08-02T19:40:38.713Z,16.00
2022-08-02T19:44:21.649Z,15.90
2022-08-02T19:45:56.987Z,15.80
2022-08-02T19:48:27.117Z,15.80
2022-08-02T19:51:00.601Z,15.80
2022-08-02T19:53:47.620Z,15.70
2022-08-02T19:56:20.562Z,15.60
2022-08-02T19:58:51.380Z,15.40
2022-08-02T20:01:23.773Z,15.30
2022-08-02T20:03:55.454Z,15.30
2022-08-02T20:06:26.452Z,15.20
2022-08-02T20:09:01.167Z,15.10
2022-08-02T20:11:34.911Z,15.10
2022-08-02T20:14:05.129Z,15.00
2022-08-02T20:16:33.419Z,15.00
2022-08-02T20:19:02.890Z,15.10
2022-08-02T20:21:36.084Z,15.00
2022-08-02T20:24:09.829Z,15.10
2022-08-02T20:26:48.029Z,15.10
2022-08-02T20:29:43.290Z,15.10
2022-08-02T20:32:06.175Z,15.10
2022-08-02T20:34:36.651Z,15.10
2022-08-02T20:37:59.844Z,15.10
2022-08-02T20:39:54.555Z,15.10
2022-08-02T20:42:24.742Z,15.10
2022-08-02T20:44:55.024Z,15.10
2022-08-02T20:50:31.829Z,15.10
2022-08-02T20:53:00.780Z,15.10
2022-08-02T20:55:31.649Z,15.00
2022-08-02T20:58:02.455Z,15.10
2022-08-02T21:00:32.384Z,15.10
2022-08-02T21:03:00.606Z,15.10
2022-08-02T21:05:54.100Z,15.10
2022-08-02T21:08:21.230Z,15.00
2022-08-02T21:10:52.624Z,15.00
2022-08-02T21:13:24.103Z,15.00
2022-08-02T21:15:55.072Z,15.00
2022-08-02T21:18:39.756Z,15.10
2022-08-02T21:21:10.044Z,15.10
2022-08-02T21:23:44.844Z,15.20
2022-08-02T21:26:25.678Z,15.10
2022-08-02T21:28:56.910Z,15.10
2022-08-02T21:31:30.001Z,15.10
2022-08-02T21:34:00.478Z,15.10
2022-08-02T21:36:30.418Z,15.00
2022-08-02T21:39:04.812Z,15.00
2022-08-02T21:41:39.343Z,15.10
2022-08-02T21:44:16.348Z,15.00
2022-08-02T21:46:45.793Z,14.90
2022-08-02T21:49:14.649Z,14.80
2022-08-02T21:51:49.339Z,14.80
2022-08-02T21:54:20.417Z,14.80
2022-08-02T21:56:52.738Z,14.80
2022-08-02T21:59:26.276Z,14.80
2022-08-02T22:01:56.844Z,14.70
2022-08-02T22:04:26.307Z,14.60
2022-08-02T22:06:55.229Z,14.60
2022-08-02T22:09:43.568Z,14.60
2022-08-02T22:12:17.841Z,14.60
2022-08-02T22:14:55.024Z,14.60
2022-08-02T22:17:49.828Z,14.60
2022-08-02T22:20:15.559Z,14.70
2022-08-02T22:22:50.518Z,14.70
2022-08-02T22:25:26.903Z,14.70
2022-08-02T22:28:39.445Z,14.70
2022-08-02T22:30:56.950Z,14.80
2022-08-02T22:33:59.934Z,14.80
2022-08-02T22:36:30.985Z,14.80
2022-08-02T22:38:59.706Z,14.70
2022-08-02T22:42:00.880Z,14.60
2022-08-02T22:44:18.813Z,14.60
2022-08-02T22:46:49.927Z,14.60
2022-08-02T22:49:37.955Z,14.60
2022-08-02T22:52:07.095Z,14.70
2022-08-02T22:54:35.170Z,14.60
2022-08-02T22:57:03.306Z,14.60
2022-08-02T22:58:34.617Z,19.90
2022-08-02T22:58:40.626Z,16.90
2022-08-02T22:58:46.368Z,16.00
2022-08-02T22:59:05.898Z,15.10
2022-08-02T22:59:39.802Z,14.60
2022-08-02T23:02:08.460Z,14.50
2022-08-02T23:04:37.608Z,14.60
2022-08-02T23:07:06.010Z,14.60
2022-08-02T23:09:34.161Z,14.60
2022-08-02T23:12:02.307Z,14.60
2022-08-02T23:14:30.665Z,14.60
2022-08-02T23:17:17.699Z,14.60
2022-08-02T23:19:54.445Z,14.60
2022-08-02T23:22:29.431Z,14.60
2022-08-02T23:25:01.163Z,14.50
2022-08-02T23:27:29.533Z,14.50
2022-08-02T23:29:57.750Z,14.50
2022-08-02T23:32:27.528Z,14.50
2022-08-02T23:34:55.830Z,14.50
2022-08-02T23:37:24.213Z,14.50
2022-08-02T23:39:52.393Z,14.50
2022-08-02T23:42:20.506Z,14.60
2022-08-02T23:44:48.575Z,14.60
2022-08-02T23:47:17.137Z,14.60
2022-08-02T23:49:46.863Z,14.60
2022-08-02T23:52:15.570Z,14.60
2022-08-02T23:54:43.825Z,14.60
2022-08-02T23:57:20.042Z,14.60
2022-08-02T23:59:50.792Z,14.60
